Time;durP1;ratioP1;P1;durP2;ratioP2;P2;SDS_P1;SDS_P2;PMS_P1;PMS_P2;Temp;Humidity;BMP_temperature;BMP_pressure;BME280_temperature;BME280_humidity;BME280_pressure;Samples;Min_cycle;Max_cycle;Signal;HPM_P1;HPM_P2
2022/02/04 00:24:09;;;;;;;2.92;2.17;;;5.00;99.90;;;;;;5040548;28;20045;-85
2022/02/04 00:26:45;;;;;;;3.72;2.17;;;5.00;99.90;;;;;;5040430;28;20029;-84
2022/02/04 00:29:19;;;;;;;4.25;2.05;;;4.90;99.90;;;;;;5040016;28;20060;-85
2022/02/04 00:31:51;;;;;;;5.25;2.05;;;4.90;99.90;;;;;;5042003;28;20033;-85
2022/02/04 00:34:19;;;;;;;3.97;2.28;;;4.90;99.90;;;;;;5039915;28;20029;-85
2022/02/04 00:39:17;;;;;;;2.25;1.73;;;4.80;99.90;;;;;;5042386;28;20123;-84
2022/02/04 00:41:44;;;;;;;2.92;1.58;;;4.80;99.90;;;;;;5041988;28;20025;-84
2022/02/04 00:44:31;;;;;;;3.35;2.00;;;4.90;99.90;;;;;;5042754;28;20025;-84
2022/02/04 00:47:19;;;;;;;3.15;1.70;;;4.80;99.90;;;;;;5041793;28;20423;-85
2022/02/04 00:50:09;;;;;;;3.22;2.28;;;4.70;99.90;;;;;;5042380;28;20112;-85
2022/02/04 00:52:52;;;;;;;2.72;1.60;;;4.70;99.90;;;;;;5040099;28;20040;-85
2022/02/04 00:55:27;;;;;;;5.07;1.77;;;4.70;99.90;;;;;;5042763;28;20367;-85
2022/02/04 01:27:25;;;;;;;3.33;1.70;;;4.50;99.90;;;;;;5022456;28;20160;-85
2022/02/04 01:30:00;;;;;;;1.77;1.38;;;4.50;99.90;;;;;;5021098;28;20116;-85
2022/02/04 01:32:27;;;;;;;2.08;1.17;;;4.40;99.90;;;;;;5021087;28;20022;-84
2022/02/04 01:34:52;;;;;;;2.40;1.58;;;4.40;99.90;;;;;;5021830;28;20025;-84
2022/02/04 01:37:18;;;;;;;2.58;1.80;;;4.40;99.90;;;;;;5020865;28;20112;-84
2022/02/04 01:39:44;;;;;;;2.58;1.40;;;4.40;99.90;;;;;;5020056;28;20026;-85
2022/02/04 01:42:10;;;;;;;1.70;1.50;;;4.40;99.90;;;;;;5021562;28;20018;-84
2022/02/04 01:44:35;;;;;;;1.73;1.33;;;4.30;99.90;;;;;;5021526;28;20034;-86
2022/02/04 01:47:01;;;;;;;2.08;1.50;;;4.30;99.90;;;;;;5020844;28;20096;-85
2022/02/04 01:49:29;;;;;;;1.65;1.27;;;4.30;99.90;;;;;;5020954;28;20034;-86
2022/02/04 01:51:56;;;;;;;3.92;1.98;;;4.30;99.90;;;;;;5023942;28;20089;-84
2022/02/04 01:54:23;;;;;;;2.97;1.75;;;4.30;99.90;;;;;;5047403;28;20089;-84
2022/02/04 01:56:50;;;;;;;2.22;1.48;;;4.30;99.90;;;;;;5034035;28;20026;-84
2022/02/04 01:59:16;;;;;;;2.10;1.70;;;4.30;99.90;;;;;;5049348;28;20080;-85
2022/02/04 02:01:42;;;;;;;3.22;2.03;;;4.40;99.90;;;;;;5035167;28;20053;-83
2022/02/04 02:04:11;;;;;;;4.57;2.45;;;4.40;99.90;;;;;;5035041;28;20025;-84
2022/02/04 02:07:17;;;;;;;2.00;1.65;;;4.40;99.90;;;;;;5040453;28;20108;-84
2022/02/04 02:12:25;;;;;;;3.00;2.03;;;4.40;99.90;;;;;;5021703;28;20028;-84
2022/02/04 02:15:03;;;;;;;2.38;1.90;;;4.50;99.90;;;;;;5025199;28;20026;-85
2022/02/04 02:42:15;;;;;;;5.43;2.97;;;4.30;99.90;;;;;;5034122;28;20026;-85
2022/02/04 02:47:13;;;;;;;5.60;3.72;;;4.20;99.90;;;;;;5033202;28;20056;-86
2022/02/04 03:02:43;;;;;;;6.68;4.75;;;4.00;99.90;;;;;;5032247;28;20390;-77
2022/02/04 03:05:09;;;;;;;7.18;4.63;;;3.90;99.90;;;;;;5035558;28;20037;-78
2022/02/04 03:07:34;;;;;;;6.55;5.00;;;3.90;99.90;;;;;;5035020;28;20032;-77
2022/02/04 03:10:00;;;;;;;9.40;5.35;;;3.90;99.90;;;;;;5035441;28;20021;-78
2022/02/04 03:12:27;;;;;;;8.75;5.25;;;3.90;99.90;;;;;;5035180;28;20032;-77
2022/02/04 03:14:53;;;;;;;7.25;4.80;;;3.90;99.90;;;;;;5035160;28;20478;-78
2022/02/04 03:17:19;;;;;;;8.10;4.65;;;3.90;99.90;;;;;;5036255;28;20036;-79
2022/02/04 03:19:49;;;;;;;7.90;4.82;;;3.90;99.90;;;;;;5035265;28;20551;-79
2022/02/04 03:22:15;;;;;;;8.55;5.07;;;3.90;99.90;;;;;;5034728;28;20143;-79
2022/02/04 03:24:46;;;;;;;7.47;4.55;;;3.90;99.90;;;;;;5015044;28;20033;-77
2022/02/04 03:27:14;;;;;;;7.72;5.53;;;3.90;99.90;;;;;;5015276;28;20548;-79
2022/02/04 03:30:00;;;;;;;8.00;5.13;;;3.90;99.90;;;;;;5014953;28;20088;-78
2022/02/04 03:32:25;;;;;;;7.55;5.43;;;3.90;99.90;;;;;;5014937;28;20490;-77
2022/02/04 03:34:51;;;;;;;7.50;5.00;;;3.90;99.90;;;;;;5015149;28;20030;-78
2022/02/04 03:37:17;;;;;;;7.50;5.32;;;3.90;99.90;;;;;;5015187;28;20061;-79
2022/02/04 03:39:42;;;;;;;7.95;4.97;;;3.90;99.90;;;;;;5014330;28;20065;-78
2022/02/04 03:42:08;;;;;;;7.15;4.63;;;3.80;99.90;;;;;;5015239;28;20053;-77
2022/02/04 03:44:36;;;;;;;8.00;4.20;;;3.70;99.90;;;;;;5016387;28;20072;-77
2022/02/04 03:47:02;;;;;;;5.40;3.28;;;3.60;99.90;;;;;;5015005;28;20478;-77
2022/02/04 03:49:28;;;;;;;5.40;3.38;;;3.50;99.90;;;;;;5014513;28;20100;-78
2022/02/04 03:51:54;;;;;;;4.82;2.95;;;3.40;99.90;;;;;;5022991;28;20068;-78
2022/02/04 03:54:19;;;;;;;4.78;3.00;;;3.30;99.90;;;;;;5031937;28;20025;-77
2022/02/04 03:56:45;;;;;;;6.20;3.30;;;3.20;99.90;;;;;;5034458;28;20026;-78
2022/02/04 03:59:11;;;;;;;5.28;3.10;;;3.10;99.90;;;;;;5034171;28;20155;-78
2022/02/04 04:01:37;;;;;;;6.13;3.63;;;3.10;99.90;;;;;;5034297;28;20088;-77
2022/02/04 04:04:03;;;;;;;6.30;3.05;;;3.00;99.90;;;;;;5034041;28;20021;-77
2022/02/04 04:06:29;;;;;;;3.63;2.67;;;3.00;99.90;;;;;;5034620;28;20018;-77
2022/02/04 04:08:55;;;;;;;4.53;2.90;;;3.00;99.90;;;;;;5032627;28;20112;-77
2022/02/04 04:11:21;;;;;;;4.30;2.28;;;2.90;99.90;;;;;;5035351;28;20100;-79
2022/02/04 04:13:48;;;;;;;4.38;2.60;;;2.90;99.90;;;;;;5034540;28;20435;-78
2022/02/04 04:16:15;;;;;;;5.57;3.03;;;2.90;99.90;;;;;;5035098;28;20017;-79
2022/02/04 04:18:41;;;;;;;4.57;2.75;;;2.80;99.90;;;;;;5034747;28;20026;-79
2022/02/04 04:21:07;;;;;;;4.75;2.92;;;2.80;99.90;;;;;;5034488;28;20087;-79
2022/02/04 04:23:32;;;;;;;3.72;2.30;;;2.80;99.90;;;;;;5025614;28;20381;-79
2022/02/04 04:25:58;;;;;;;3.47;2.58;;;2.80;99.90;;;;;;5049123;28;20021;-78
2022/02/04 04:28:24;;;;;;;4.68;2.80;;;2.80;99.90;;;;;;5034272;28;20382;-79
2022/02/04 04:30:50;;;;;;;3.53;2.60;;;2.80;99.90;;;;;;5034109;28;20025;-78
2022/02/04 04:33:16;;;;;;;3.85;2.83;;;2.80;99.90;;;;;;5034007;28;20188;-76
2022/02/04 04:35:41;;;;;;;6.07;3.17;;;2.80;99.90;;;;;;5032600;28;20048;-77
2022/02/04 05:29:11;;;;;;;9.05;5.45;;;2.70;99.90;;;;;;5018066;28;20633;-76
2022/02/04 05:31:37;;;;;;;10.07;6.43;;;2.60;99.90;;;;;;5014934;28;20030;-78
2022/02/04 05:34:03;;;;;;;7.97;5.22;;;2.60;99.90;;;;;;5013256;28;20153;-77
2022/02/04 05:36:32;;;;;;;9.23;5.38;;;2.60;99.90;;;;;;5014951;28;20053;-78
2022/02/04 05:39:01;;;;;;;9.20;5.28;;;2.60;99.90;;;;;;5015902;28;20022;-77
2022/02/04 05:41:31;;;;;;;10.52;6.20;;;2.60;99.90;;;;;;5015597;28;20196;-77
2022/02/04 05:44:01;;;;;;;9.02;5.72;;;2.60;99.90;;;;;;5015542;28;20076;-78
2022/02/04 05:46:32;;;;;;;8.05;5.40;;;2.70;99.90;;;;;;5018719;28;20013;-77
2022/02/04 05:48:59;;;;;;;9.40;5.55;;;2.60;99.90;;;;;;5028771;28;20025;-79
2022/02/04 05:56:31;;;;;;;11.57;6.72;;;2.70;99.90;;;;;;5023658;28;20033;-80
2022/02/04 06:01:44;;;;;;;10.90;6.80;;;2.80;99.90;;;;;;5027331;28;20034;-79
2022/02/04 06:22:48;;;;;;;14.80;8.52;;;3.40;99.90;;;;;;5030613;28;20621;-79
2022/02/04 06:25:13;;;;;;;11.85;8.25;;;3.60;99.90;;;;;;5038459;28;20026;-80
2022/02/04 06:27:39;;;;;;;23.63;11.80;;;3.70;99.90;;;;;;5038221;28;20024;-80
2022/02/04 06:30:06;;;;;;;18.73;10.77;;;3.70;99.90;;;;;;5038781;28;20033;-80
2022/02/04 06:32:33;;;;;;;13.02;8.55;;;3.80;99.90;;;;;;5038334;28;20025;-79
2022/02/04 06:34:59;;;;;;;15.55;9.52;;;3.90;99.90;;;;;;5036897;28;20033;-80
2022/02/04 06:37:26;;;;;;;14.07;9.40;;;4.00;99.90;;;;;;5037295;28;20044;-79
2022/02/04 06:39:52;;;;;;;14.98;9.57;;;4.00;99.90;;;;;;5038249;28;20021;-79
2022/02/04 06:42:24;;;;;;;16.25;10.00;;;4.10;99.90;;;;;;5037546;28;20500;-79
2022/02/04 06:44:50;;;;;;;15.30;10.15;;;4.10;99.90;;;;;;5037455;28;20025;-79
2022/02/04 06:47:16;;;;;;;14.43;9.02;;;4.20;99.90;;;;;;5037327;28;20022;-78
2022/02/04 06:49:46;;;;;;;14.50;9.15;;;4.20;99.90;;;;;;5037963;28;20029;-79
2022/02/04 06:52:23;;;;;;;14.00;8.60;;;4.30;99.90;;;;;;5053923;28;20021;-78
2022/02/04 06:54:49;;;;;;;17.10;9.70;;;4.40;99.90;;;;;;5054864;28;20056;-78
2022/02/04 06:57:15;;;;;;;17.83;10.35;;;4.40;99.90;;;;;;5053259;28;20029;-79
2022/02/04 06:59:43;;;;;;;18.80;10.45;;;4.40;99.90;;;;;;5051947;28;20095;-80
2022/02/04 07:02:09;;;;;;;14.48;9.25;;;4.40;99.90;;;;;;5051866;28;20029;-79
2022/02/04 07:04:35;;;;;;;14.45;8.85;;;4.50;99.90;;;;;;5038596;28;20022;-80
2022/02/04 07:07:02;;;;;;;18.45;10.40;;;4.50;99.90;;;;;;5038586;28;20014;-79
2022/02/04 07:12:34;;;;;;;14.45;9.45;;;4.60;99.90;;;;;;4995526;28;20217;-79
2022/02/04 07:20:13;;;;;;;13.85;9.63;;;4.70;99.90;;;;;;5036390;28;20044;-79
2022/02/04 07:22:39;;;;;;;16.17;9.88;;;4.80;99.90;;;;;;5028392;28;20088;-79
2022/02/04 07:25:06;;;;;;;19.55;11.20;;;4.90;99.90;;;;;;5035111;28;20049;-80
2022/02/04 07:27:34;;;;;;;15.48;10.18;;;4.90;99.90;;;;;;5036722;28;20426;-79
2022/02/04 07:30:00;;;;;;;14.63;9.13;;;4.90;99.90;;;;;;5038530;28;20113;-81
2022/02/04 07:42:58;;;;;;;18.10;10.77;;;5.10;99.90;;;;;;5037640;28;20044;-81
2022/02/04 07:45:24;;;;;;;13.63;9.00;;;5.20;99.90;;;;;;5039599;28;20017;-80
2022/02/04 07:48:10;;;;;;;17.90;9.32;;;5.20;99.90;;;;;;5037382;28;20034;-80
2022/02/04 07:50:36;;;;;;;10.93;7.97;;;5.20;99.90;;;;;;5038011;28;20021;-80
2022/02/04 07:53:01;;;;;;;15.52;8.70;;;5.30;99.90;;;;;;5037810;28;20087;-80
2022/02/04 07:55:28;;;;;;;12.43;8.77;;;5.30;99.90;;;;;;5040829;28;20075;-80
2022/02/04 07:57:54;;;;;;;11.43;7.90;;;5.40;99.90;;;;;;5042450;28;20005;-80
2022/02/04 08:00:21;;;;;;;11.68;8.30;;;5.40;99.90;;;;;;5041518;28;20075;-79
2022/02/04 08:02:48;;;;;;;10.80;7.82;;;5.50;99.90;;;;;;5038189;28;20025;-79
2022/02/04 08:05:18;;;;;;;13.18;7.70;;;5.60;99.90;;;;;;5039087;28;20422;-79
2022/02/04 08:18:33;;;;;;;13.73;9.38;;;5.70;99.90;;;;;;5037222;28;20463;-79
2022/02/04 08:34:00;;;;;;;14.88;9.15;;;6.10;99.90;;;;;;5023636;28;20061;-80
2022/02/04 08:36:48;;;;;;;13.35;8.48;;;6.10;99.90;;;;;;5023473;28;20026;-80
2022/02/04 08:50:40;;;;;;;12.43;9.30;;;6.60;98.50;;;;;;5039794;28;20025;-79
2022/02/04 08:55:12;;;;;;;16.80;10.15;;;6.70;97.90;;;;;;5038853;28;20038;-80
2022/02/04 08:57:53;;;;;;;14.80;9.63;;;6.80;97.50;;;;;;5041725;28;20037;-79
2022/02/04 09:00:31;;;;;;;13.57;8.80;;;6.90;97.20;;;;;;5052271;22;20040;-87
2022/02/04 09:03:12;;;;;;;12.10;8.60;;;6.90;97.20;;;;;;4998465;28;20043;-87
2022/02/04 09:05:41;;;;;;;15.52;10.38;;;7.10;97.10;;;;;;4999487;28;20030;-86
2022/02/04 09:08:18;;;;;;;14.07;9.77;;;7.20;96.00;;;;;;4998958;28;20104;-88
2022/02/04 09:10:47;;;;;;;13.57;8.95;;;7.20;96.00;;;;;;5007023;28;20034;-89
2022/02/04 09:18:52;;;;;;;11.63;8.52;;;7.20;96.40;;;;;;5012053;28;20045;-85
2022/02/04 09:21:37;;;;;;;14.18;9.90;;;7.30;96.10;;;;;;5007256;28;20064;-85
2022/02/04 09:24:05;;;;;;;11.48;8.05;;;7.20;95.50;;;;;;5007569;28;20026;-85
2022/02/04 09:26:31;;;;;;;11.80;8.70;;;7.20;95.50;;;;;;5001475;28;20022;-86
2022/02/04 09:28:57;;;;;;;13.45;8.57;;;7.20;95.70;;;;;;4998646;28;20113;-87
2022/02/04 09:31:23;;;;;;;13.45;8.63;;;7.30;95.60;;;;;;4998447;28;20060;-87
2022/02/04 09:33:49;;;;;;;14.43;9.25;;;7.30;95.30;;;;;;4999840;28;20034;-86
2022/02/04 09:36:14;;;;;;;10.27;7.82;;;7.30;94.60;;;;;;4997925;28;20022;-86
2022/02/04 09:38:40;;;;;;;12.63;8.40;;;7.40;94.50;;;;;;4998153;28;20023;-88
2022/02/04 09:41:06;;;;;;;9.68;7.80;;;7.50;94.00;;;;;;4999649;28;20034;-86
2022/02/04 09:43:33;;;;;;;11.88;8.80;;;7.70;93.80;;;;;;4999434;28;20018;-86
2022/02/04 09:46:00;;;;;;;11.63;8.10;;;7.80;92.90;;;;;;4998775;28;20045;-85
2022/02/04 09:48:27;;;;;;;11.15;8.13;;;7.90;92.90;;;;;;4997990;28;20053;-85
2022/02/04 09:51:03;;;;;;;12.57;7.93;;;8.20;92.70;;;;;;5001766;28;20026;-84
2022/02/04 10:21:02;;;;;;;10.18;6.70;;;8.40;89.70;;;;;;5018824;28;20026;-86
2022/02/04 10:23:46;;;;;;;10.00;7.07;;;8.30;90.20;;;;;;5018847;28;20658;-87
2022/02/04 10:26:12;;;;;;;9.23;6.47;;;8.20;89.70;;;;;;5026998;28;20073;-86
2022/02/04 10:28:38;;;;;;;9.05;6.32;;;8.20;90.00;;;;;;5023895;28;20087;-85
2022/02/04 10:31:10;;;;;;;8.90;6.18;;;8.20;90.00;;;;;;5027652;28;20049;-85
2022/02/04 10:34:10;;;;;;;7.60;6.07;;;8.30;90.00;;;;;;5026612;28;20045;-86
2022/02/04 10:36:36;;;;;;;8.73;6.72;;;8.30;89.90;;;;;;5021192;28;20399;-87
2022/02/04 10:39:26;;;;;;;8.95;6.53;;;8.20;88.50;;;;;;5022244;28;20068;-86
2022/02/04 10:45:52;;;;;;;8.05;5.63;;;8.20;90.00;;;;;;5028739;28;20033;-87
2022/02/04 10:48:49;;;;;;;9.30;6.45;;;8.40;89.90;;;;;;5019464;28;20076;-86
2022/02/04 10:54:23;;;;;;;7.78;5.65;;;9.20;85.00;;;;;;5023099;28;20030;-85
2022/02/04 11:21:45;;;;;;;9.02;5.07;;;9.10;82.30;;;;;;5023021;28;20022;-84
2022/02/04 11:34:11;;;;;;;6.10;4.82;;;9.40;79.70;;;;;;5016691;28;20035;-87
2022/02/04 11:37:00;;;;;;;4.95;4.22;;;9.40;79.00;;;;;;5012102;28;20030;-83
2022/02/04 11:48:42;;;;;;;8.00;5.03;;;9.40;79.00;;;;;;4998585;28;20029;-83
2022/02/04 11:57:03;;;;;;;8.68;4.97;;;9.10;79.90;;;;;;5003841;28;20026;-84
2022/02/04 11:59:46;;;;;;;10.32;5.45;;;9.00;79.40;;;;;;5004629;28;20456;-85
2022/02/04 12:02:27;;;;;;;7.88;5.20;;;9.00;79.20;;;;;;5003416;28;20033;-85
2022/02/04 12:05:07;;;;;;;7.55;5.25;;;8.90;80.40;;;;;;5006866;28;20022;-86
2022/02/04 12:07:41;;;;;;;10.60;5.80;;;8.90;80.30;;;;;;5016809;28;20021;-87
2022/02/04 12:10:13;;;;;;;6.57;4.95;;;8.90;81.10;;;;;;5025390;28;20042;-84
2022/02/04 12:12:59;;;;;;;8.75;5.90;;;9.00;81.00;;;;;;5026987;28;20053;-84
2022/02/04 12:18:08;;;;;;;7.25;5.07;;;9.20;80.00;;;;;;5021681;28;20030;-85
2022/02/04 12:20:55;;;;;;;5.80;4.65;;;9.40;80.30;;;;;;5009187;28;20117;-83
2022/02/04 12:23:29;;;;;;;7.43;5.15;;;9.80;78.80;;;;;;5015101;28;20546;-83
2022/02/04 12:26:04;;;;;;;8.88;5.78;;;10.10;78.40;;;;;;5012571;28;20030;-85
2022/02/04 12:28:48;;;;;;;8.77;6.30;;;10.20;75.70;;;;;;4995608;28;20018;-84
2022/02/04 12:31:32;;;;;;;6.88;5.32;;;10.10;76.10;;;;;;4998701;28;20031;-84
2022/02/04 12:34:01;;;;;;;9.25;6.00;;;10.00;76.50;;;;;;5018999;28;20022;-83
2022/02/04 12:36:40;;;;;;;7.65;5.40;;;10.00;77.50;;;;;;5005029;28;20109;-83
2022/02/04 12:39:13;;;;;;;10.68;5.72;;;10.10;77.50;;;;;;5006750;28;20112;-83
2022/02/04 12:41:51;;;;;;;6.95;4.93;;;10.10;76.10;;;;;;5018795;28;20089;-84
2022/02/04 12:44:20;;;;;;;7.97;5.75;;;10.10;76.30;;;;;;5016154;28;20034;-83
2022/02/04 12:47:07;;;;;;;5.95;4.97;;;10.10;76.10;;;;;;5008720;28;20036;-84
2022/02/04 12:49:44;;;;;;;7.55;5.88;;;10.30;75.80;;;;;;5010866;28;20459;-85
2022/02/04 12:54:54;;;;;;;6.57;5.72;;;10.50;75.10;;;;;;4990247;28;20018;-84
2022/02/04 13:10:15;;;;;;;8.75;6.00;;;10.50;74.40;;;;;;5017058;28;20152;-84
2022/02/04 13:13:10;;;;;;;8.27;6.57;;;10.50;74.20;;;;;;5005813;28;20034;-84
2022/02/04 13:15:38;;;;;;;10.20;6.00;;;10.40;74.00;;;;;;5018073;28;20034;-84
2022/02/04 13:18:14;;;;;;;8.52;6.18;;;10.20;74.90;;;;;;5011925;28;20097;-85
2022/02/04 13:20:46;;;;;;;9.18;6.28;;;10.10;75.20;;;;;;5010585;28;20029;-85
2022/02/04 13:23:17;;;;;;;7.43;5.80;;;10.00;75.80;;;;;;5003350;28;20022;-84
2022/02/04 13:25:46;;;;;;;12.45;6.47;;;9.90;76.50;;;;;;5005382;28;20049;-84
2022/02/04 13:28:20;;;;;;;8.30;5.72;;;10.00;76.60;;;;;;5003590;28;20087;-89
2022/02/04 13:30:59;;;;;;;8.38;6.55;;;10.20;76.10;;;;;;5012422;28;20053;-88
2022/02/04 13:33:26;;;;;;;9.13;6.32;;;10.40;74.90;;;;;;4995701;28;20118;-89
2022/02/04 13:38:59;;;;;;;8.88;5.95;;;10.30;73.90;;;;;;4996230;28;20046;-84
2022/02/04 13:47:04;;;;;;;8.32;6.05;;;10.00;75.90;;;;;;5017783;28;20049;-87
2022/02/04 13:52:21;;;;;;;10.85;5.78;;;10.20;75.50;;;;;;5003685;28;20030;-85
2022/02/04 13:55:04;;;;;;;7.28;5.68;;;10.20;74.50;;;;;;4981176;28;20027;-85
2022/02/04 14:00:12;;;;;;;13.05;5.85;;;10.10;75.70;;;;;;4999429;28;20030;-85
2022/02/04 14:02:45;;;;;;;9.63;5.90;;;10.10;75.20;;;;;;4998252;28;20038;-86
2022/02/04 14:05:13;;;;;;;6.85;5.68;;;10.10;74.90;;;;;;4998138;28;20050;-86
2022/02/04 14:07:52;;;;;;;6.97;5.32;;;10.00;75.60;;;;;;4997633;28;20026;-88
2022/02/04 14:10:31;;;;;;;8.65;5.55;;;9.90;76.50;;;;;;5003816;28;20027;-86
2022/02/04 14:12:58;;;;;;;11.00;5.68;;;9.80;76.40;;;;;;5003670;28;20029;-87
2022/02/04 14:15:28;;;;;;;8.32;6.47;;;9.60;77.30;;;;;;5003071;28;20022;-88
2022/02/04 14:18:00;;;;;;;10.82;7.07;;;9.70;77.50;;;;;;5002325;28;20018;-87
2022/02/04 14:20:26;;;;;;;6.20;5.60;;;9.70;77.90;;;;;;5004226;28;20068;-87
2022/02/04 14:22:52;;;;;;;11.65;6.30;;;9.60;77.30;;;;;;5012557;28;20061;-87
2022/02/04 14:25:18;;;;;;;9.10;6.47;;;9.40;78.00;;;;;;5022837;28;20022;-85
2022/02/04 14:27:47;;;;;;;7.40;4.93;;;9.30;78.40;;;;;;5021572;28;20026;-87
2022/02/04 14:30:19;;;;;;;7.97;6.47;;;9.20;78.80;;;;;;5018892;28;20037;-88
2022/02/04 14:32:51;;;;;;;7.88;6.35;;;9.00;79.30;;;;;;5008876;28;20041;-86
2022/02/04 14:35:28;;;;;;;6.03;5.43;;;8.90;79.70;;;;;;5022416;28;20049;-87
2022/02/04 14:51:56;;;;;;;9.60;5.53;;;8.80;81.00;;;;;;5007231;28;20402;-87
2022/02/04 14:58:40;;;;;;;7.35;5.55;;;8.80;81.50;;;;;;5024335;28;20030;-86
2022/02/04 15:00:19;;;;;;;11.60;6.28;;;8.80;81.30;;;;;;5023232;28;20028;-87
2022/02/04 15:02:49;;;;;;;7.25;5.57;;;8.80;81.80;;;;;;5029511;28;20046;-86
2022/02/04 15:05:20;;;;;;;9.00;5.47;;;8.70;81.40;;;;;;5012630;28;20503;-85
2022/02/04 15:07:48;;;;;;;7.05;5.60;;;8.60;81.30;;;;;;5002443;28;20022;-86
2022/02/04 15:10:26;;;;;;;8.30;5.28;;;8.50;82.00;;;;;;5001823;28;20384;-86
2022/02/04 15:12:53;;;;;;;5.95;4.43;;;8.50;82.70;;;;;;5008385;28;20033;-86
2022/02/04 15:15:19;;;;;;;8.45;4.95;;;8.40;83.30;;;;;;5003312;28;20034;-86
2022/02/04 15:17:45;;;;;;;8.35;5.25;;;8.30;83.80;;;;;;5001515;28;20037;-86
2022/02/04 15:20:10;;;;;;;6.43;4.55;;;8.20;84.10;;;;;;5005429;28;20399;-85
2022/02/04 15:22:36;;;;;;;8.05;5.35;;;8.10;84.60;;;;;;5019288;28;20010;-86
2022/02/04 15:25:11;;;;;;;9.23;6.07;;;8.10;84.90;;;;;;5002161;28;20026;-83
2022/02/04 15:27:41;;;;;;;8.25;5.68;;;8.10;84.80;;;;;;5000108;28;20025;-86
2022/02/04 15:30:09;;;;;;;9.07;5.80;;;8.00;84.70;;;;;;5000342;28;20056;-85
2022/02/04 15:32:34;;;;;;;8.73;5.35;;;8.00;85.00;;;;;;5002351;28;20391;-86
2022/02/04 15:35:04;;;;;;;6.53;4.72;;;7.90;85.20;;;;;;5002533;28;20034;-85
2022/02/04 15:37:30;;;;;;;6.82;5.03;;;7.80;85.50;;;;;;5011106;28;20109;-86
2022/02/04 15:39:56;;;;;;;6.75;5.00;;;7.70;86.10;;;;;;5015773;28;20030;-86
2022/02/04 15:42:23;;;;;;;7.28;3.75;;;7.70;86.50;;;;;;5015406;28;20085;-86
2022/02/04 15:47:50;;;;;;;6.80;5.45;;;7.60;87.20;;;;;;5012645;28;20034;-87
2022/02/04 15:52:51;;;;;;;7.75;4.47;;;7.50;88.10;;;;;;5020049;28;20041;-88
2022/02/04 15:58:00;;;;;;;10.90;5.38;;;7.40;88.30;;;;;;5031249;28;20029;-87
2022/02/04 16:00:52;;;;;;;6.90;5.25;;;7.50;88.60;;;;;;5025964;28;20026;-88
2022/02/04 16:05:59;;;;;;;7.50;4.95;;;7.30;88.90;;;;;;5005672;28;20022;-87
2022/02/04 16:08:25;;;;;;;8.52;5.15;;;7.30;89.80;;;;;;5004830;28;20026;-88
2022/02/04 16:13:50;;;;;;;10.15;5.60;;;7.20;90.00;;;;;;4984608;28;20031;-89
2022/02/04 16:28:38;;;;;;;10.02;5.47;;;6.90;91.10;;;;;;5023404;28;20030;-87
2022/02/04 16:29:57;;;;;;;9.70;5.65;;;6.90;91.30;;;;;;5021851;28;20096;-84
2022/02/04 16:32:23;;;;;;;8.48;5.85;;;6.80;91.50;;;;;;5015440;28;20411;-85
2022/02/04 16:34:54;;;;;;;7.97;5.13;;;6.80;91.70;;;;;;4999766;28;20140;-85
2022/02/04 16:38:02;;;;;;;13.38;6.05;;;6.70;91.80;;;;;;5000997;28;20069;-83
2022/02/04 16:40:16;;;;;;;7.65;5.47;;;6.70;92.10;;;;;;4997703;28;20097;-85
2022/02/04 16:42:44;;;;;;;9.88;5.78;;;6.70;92.10;;;;;;5000563;28;20045;-82
2022/02/04 16:45:10;;;;;;;12.25;6.47;;;6.70;92.20;;;;;;5002082;28;20125;-83
2022/02/04 16:47:37;;;;;;;8.68;5.95;;;6.70;92.30;;;;;;5003981;28;20022;-84
2022/02/04 16:50:04;;;;;;;9.30;5.60;;;6.60;92.40;;;;;;5000495;28;20026;-84
2022/02/04 16:52:30;;;;;;;7.85;5.88;;;6.60;92.50;;;;;;5015843;28;20038;-83
2022/02/04 16:54:57;;;;;;;6.53;4.65;;;6.70;92.60;;;;;;5013702;28;20080;-82
2022/02/04 16:57:25;;;;;;;6.00;4.63;;;6.70;92.70;;;;;;4999773;28;20058;-83
2022/02/04 16:59:53;;;;;;;7.53;4.40;;;6.60;92.80;;;;;;5000706;28;20045;-80
2022/02/04 17:02:20;;;;;;;7.50;4.55;;;6.50;93.10;;;;;;5001081;28;20046;-84
2022/02/04 17:04:46;;;;;;;7.20;4.35;;;6.40;93.30;;;;;;5000865;28;20026;-83
2022/02/04 17:07:19;;;;;;;8.15;4.65;;;6.30;93.60;;;;;;4997254;28;20053;-84
2022/02/04 17:09:49;;;;;;;7.53;4.90;;;6.30;93.90;;;;;;4982505;28;20050;-83
2022/02/04 17:12:27;;;;;;;5.50;3.95;;;6.30;94.20;;;;;;4981600;28;20532;-82
2022/02/04 17:14:54;;;;;;;7.15;5.13;;;6.30;94.40;;;;;;4995477;28;20117;-83
2022/02/04 17:17:23;;;;;;;6.65;4.95;;;6.20;94.40;;;;;;4999903;28;20027;-82
2022/02/04 17:19:55;;;;;;;6.20;4.88;;;6.20;94.50;;;;;;5003248;28;20050;-83
2022/02/04 17:22:21;;;;;;;7.35;5.30;;;6.20;94.60;;;;;;5058160;22;20116;-82
2022/02/04 17:24:48;;;;;;;8.32;5.93;;;6.20;94.70;;;;;;5024422;28;20040;-84
2022/02/04 17:27:16;;;;;;;7.22;4.75;;;6.20;94.70;;;;;;5024229;28;20014;-83
2022/02/04 17:29:51;;;;;;;9.30;5.75;;;6.20;94.70;;;;;;5022718;28;20037;-83
2022/02/04 17:32:20;;;;;;;8.40;6.63;;;6.20;94.90;;;;;;5025906;28;20569;-83
2022/02/04 17:34:45;;;;;;;9.25;5.70;;;6.20;94.80;;;;;;5025807;28;20053;-83
2022/02/04 17:37:11;;;;;;;10.57;6.07;;;6.30;94.70;;;;;;5026514;28;20034;-83
2022/02/04 17:39:38;;;;;;;9.02;6.07;;;6.30;94.70;;;;;;5025963;28;20041;-83
2022/02/04 17:42:04;;;;;;;10.10;6.38;;;6.20;94.70;;;;;;5030824;28;20032;-83
2022/02/04 17:44:30;;;;;;;10.57;5.82;;;6.20;94.90;;;;;;5035848;28;20017;-82
2022/02/04 17:46:55;;;;;;;11.07;6.72;;;6.20;94.90;;;;;;5033475;28;20034;-82
2022/02/04 17:49:30;;;;;;;9.82;6.47;;;6.10;95.00;;;;;;5026346;28;20025;-83
2022/02/04 17:52:50;;;;;;;12.13;6.75;;;6.10;94.90;;;;;;5037416;28;20442;-84
2022/02/04 17:56:17;;;;;;;11.25;6.40;;;6.10;95.00;;;;;;5008360;28;20023;-83
2022/02/04 18:01:54;;;;;;;8.48;5.68;;;6.00;95.00;;;;;;5033932;28;20395;-83
2022/02/04 18:07:17;;;;;;;11.27;5.35;;;5.90;94.90;;;;;;5031087;28;20159;-82
2022/02/04 18:09:48;;;;;;;10.20;5.78;;;6.00;94.60;;;;;;5042407;28;20422;-82
2022/02/04 18:12:21;;;;;;;9.38;5.38;;;6.10;94.40;;;;;;5041831;28;20022;-79
2022/02/04 18:14:51;;;;;;;9.43;5.57;;;6.10;94.30;;;;;;5037761;28;20104;-80
2022/02/04 18:17:21;;;;;;;8.90;5.60;;;6.10;94.20;;;;;;5039916;28;20021;-81
2022/02/04 18:20:05;;;;;;;8.93;6.03;;;6.10;94.40;;;;;;5032363;28;20056;-81
2022/02/04 18:22:35;;;;;;;6.45;4.88;;;6.10;94.40;;;;;;5025191;28;20037;-81
2022/02/04 18:25:01;;;;;;;7.40;5.18;;;6.10;94.20;;;;;;5039566;28;20048;-81
2022/02/04 18:27:27;;;;;;;9.25;5.55;;;6.10;94.40;;;;;;5022140;28;20026;-83
2022/02/04 18:29:55;;;;;;;10.60;5.68;;;6.00;94.60;;;;;;5019765;28;20095;-82
2022/02/04 18:32:24;;;;;;;7.90;5.03;;;6.00;94.40;;;;;;5021508;28;20331;-82
2022/02/04 18:34:56;;;;;;;6.13;4.38;;;6.10;94.00;;;;;;5020579;28;20129;-82
2022/02/04 18:37:38;;;;;;;5.60;3.73;;;6.20;93.50;;;;;;5019239;28;20036;-81
2022/02/04 18:40:25;;;;;;;4.30;2.95;;;6.20;93.30;;;;;;5019120;28;20036;-80
2022/02/04 18:43:21;;;;;;;6.18;3.75;;;6.10;93.10;;;;;;5020566;28;20105;-80
2022/02/04 18:45:50;;;;;;;4.60;3.03;;;6.10;93.20;;;;;;5019864;28;20018;-81
2022/02/04 18:48:20;;;;;;;6.28;3.45;;;6.10;92.90;;;;;;5019894;28;20590;-81
2022/02/04 18:58:26;;;;;;;3.22;1.95;;;6.10;92.80;;;;;;5023773;28;20025;-81
2022/02/04 19:00:58;;;;;;;2.55;1.48;;;6.10;92.50;;;;;;5019561;28;20152;-81
2022/02/04 19:03:36;;;;;;;3.25;1.70;;;6.00;92.30;;;;;;5022124;28;20029;-82
2022/02/04 19:08:42;;;;;;;1.63;1.05;;;6.00;92.20;;;;;;5025305;28;20034;-81
2022/02/04 19:11:09;;;;;;;1.35;1.27;;;6.00;91.90;;;;;;5029714;28;20061;-81
2022/02/04 19:13:42;;;;;;;1.65;1.30;;;6.00;92.10;;;;;;5025854;28;20468;-81
2022/02/04 19:18:45;;;;;;;6.22;1.35;;;6.00;91.90;;;;;;5028109;28;20332;-81
2022/02/04 19:21:19;;;;;;;3.60;1.27;;;6.00;91.80;;;;;;5024998;28;20383;-80
2022/02/04 19:23:50;;;;;;;4.00;1.17;;;6.00;91.70;;;;;;5019643;28;20056;-82
2022/02/04 19:26:24;;;;;;;1.30;1.20;;;5.80;91.80;;;;;;5023426;28;20018;-82
2022/02/04 19:28:50;;;;;;;3.20;1.30;;;5.70;92.20;;;;;;5018496;28;20037;-81
2022/02/04 19:31:16;;;;;;;2.10;1.30;;;5.60;92.40;;;;;;5019814;28;20040;-81
2022/02/04 19:33:42;;;;;;;1.63;1.20;;;5.50;92.50;;;;;;5024968;28;20049;-81
2022/02/04 19:36:07;;;;;;;2.25;1.17;;;5.60;92.50;;;;;;5032289;28;20029;-81
2022/02/04 19:38:33;;;;;;;3.38;1.10;;;5.60;92.40;;;;;;5027712;28;20021;-82
2022/02/04 19:40:59;;;;;;;1.95;0.80;;;5.60;92.30;;;;;;5030292;28;20108;-82
2022/02/04 19:43:27;;;;;;;2.80;1.30;;;5.70;92.30;;;;;;5027122;28;20471;-81
2022/02/04 19:45:56;;;;;;;2.25;1.15;;;5.80;91.90;;;;;;5023050;28;20026;-82
2022/02/04 19:51:23;;;;;;;1.33;1.00;;;5.90;91.60;;;;;;5022218;28;20128;-82
2022/02/04 20:12:50;;;;;;;0.75;0.70;;;6.10;90.80;;;;;;5034120;28;20041;-82
2022/02/04 20:23:41;;;;;;;2.22;0.70;;;6.30;90.70;;;;;;5015029;28;20044;-85
2022/02/04 20:26:09;;;;;;;2.95;0.63;;;6.40;90.80;;;;;;5041636;28;20040;-85
2022/02/04 20:28:36;;;;;;;0.40;0.30;;;6.40;90.80;;;;;;5028070;28;20502;-84
2022/02/04 20:31:01;;;;;;;2.75;1.38;;;6.50;91.10;;;;;;5020229;28;20037;-85
2022/02/04 20:33:27;;;;;;;0.40;0.40;;;6.50;90.90;;;;;;5022077;28;20093;-85
2022/02/04 20:35:53;;;;;;;0.63;0.50;;;6.50;91.00;;;;;;5021284;28;20141;-85